International TAF

Brunei, China, Hong Kong, Malaysia, Philippines, Taiwan

The availability of aerodrome forecasts from overseas locations is dependent on the regular international exchange of data. Some locations may at times be absent. If this problem persists, please advise webav@bom.gov.au

 back to top

ZSPD 20/11/2019 UTC

TAF ZSPD 202112Z 2100/2124 08004MPS 5000 HZ SCT020 TX18/2106Z
TN11/2121Z

WIDD 20/11/2019 UTC

TAF WIDD 202300Z 2100/2124 35005KT 5000 -RA SCT014
BECMG 2102/2104 9000

WAMM 20/11/2019 UTC

TAF WAMM 202300Z 2100/2206 11005KT 9999 SCT022
BECMG 2100/2102 33010KT
PROB30 TEMPO 2105/2109 5000 RA FEW016CB

WBSB 20/11/2019 UTC

TAF WBSB 202300Z 2100/2206 14003KT 9999 FEW003 BKN150
TEMPO 2100/2104 5000 -RA
BECMG 2103/2105 01009KT SCT014 FEW015CB
TEMPO 2108/2112 3000 TSRA

WBKK 20/11/2019 UTC

TAF WBKK 202300Z 2100/2200 26005KT 9999 FEW014
TEMPO 2100/2104 5000 RA FEW013 FEW015CB SCT040
BECMG 2104/2106 32006KT

WBGG 20/11/2019 UTC

TAF WBGG 202300Z 2100/2200 VRB03KT 9999 SCT020
TEMPO 2106/2110 4000 TSRA FEW015CB

VHHH 20/11/2019 UTC

TAF VHHH 202300Z 2100/2206 06010KT 9999 FEW040 TX25/2106Z
TX25/2206Z TN20/2122Z BECMG 2103/2105 28010KT BECMG 2109/2111
06010KT TEMPO 2109/2115 12010KT

VMMC 20/11/2019 UTC

TAF VMMC 202300Z 2100/2206 01010KT 9999 FEW035

ZGSZ 20/11/2019 UTC

TAF ZGSZ 201912Z 2100/2124 04004MPS 6000 FEW040 TX26/2106Z
TN18/2122Z
BECMG 2103/2104 33004MPS BECMG 2110/2111 04004MPS

RCTP 20/11/2019 UTC

TAF RCTP 202300Z 2100/2206 06018KT 9999 FEW015 BKN032
TEMPO 2108/2114 04023G33KT 5000 RA SCT008 BKN012 BKN030
BECMG 2114/2116 03020G30KT SCT006 BKN011 BKN025
TEMPO 2116/2122 02025G35KT 4000 RA SCT003 BKN006 BKN020
BECMG 2201/2203 SCT010 BKN016 BKN040

RCKH 20/11/2019 UTC

TAF RCKH 202300Z 2100/2206 35005KT 9999 FEW015 BKN032
TEMPO 2103/2109 29008KT
TEMPO 2112/2118 35010G20KT FEW012 BKN022 BKN050
TEMPO 2118/2124 04005KT 5000 BR
BECMG 2201/2203 31010KT

ZGGG 20/11/2019 UTC

TAF ZGGG 202104Z 2100/2124 03003MPS CAVOK TX26/2107Z TN16/2122Z

ZBAA 20/11/2019 UTC

TAF ZBAA 202120Z 2100/2124 18003MPS 3500 BR NSC TX09/2107Z
TNM02/21Z

ZSSS 20/11/2019 UTC

TAF ZSSS 201918Z 2100/2124 08004MPS 5000 BR SCT020 TX18/2106Z
TN12/2120Z

ZBTJ 20/11/2019 UTC

TAF ZBTJ 201916Z 2100/2124 18003MPS 3000 HZ NSC TX11/2107Z
TN02/2122Z

ZBYN 20/11/2019 UTC

TAF ZBYN 201903Z 2100/2124 09003MPS 3000 HZ NSC TX12/2107Z
TN02/2122Z

ZSHC 20/11/2019 UTC

TAF ZSHC 201901Z 2100/2124 09003MPS 3000 BR NSC TX20/2106Z
TN10/2121Z

ZSOF 21/11/2019 UTC

TAF ZSOF 201925Z 210024 11003MPS 6000 NSC TX16/07Z TN07/22Z
BECMG
1718 2000 BR BECMG 1920 1400 BR TEMPO 2024 0300 FG

ZWWW 20/11/2019 UTC

TAF ZWWW 202104Z 2100/2124 23003MPS 6000 NSC TX00/2106Z TNM10/23Z
BECMG 2102/2103 33004G09MPS BECMG 2107/2108 2500 -SN BR BKN014
OVC020
BECMG 2115/2116 20003MPS 6000 NSC

ZYTL 20/11/2019 UTC

TAF ZYTL 201905Z 2100/2124 18004MPS 6000 NSC TX12/2104Z TN05/2120Z

RPLL 20/11/2019 UTC

TAF RPLL 202300Z 2100/2206 12006KT 9999 FEW025 BKN300
TX31/2106Z TN26/2122Z
TEMPO 2100/21006 15009KT SCT023 BKN100
TEMPO 2106/2112 16010KT -TSRA FEW022CB SCT023 BKN100

RPVM 20/11/2019 UTC

TAF RPVM 202300Z 2100/2200 06004KT 9999 FEW020 SCT300
TEMPO 2100Z/2106 16004KT -SHRA FEW018CB SCT020 BKN100
TEMPO 2106/2112 VRB05KT 9000 -SHRA FEW018CB FEW020 BKN090

RPMZ 20/11/2019 UTC

TAF RPMZ 202300Z 2100/2124 26004KT 9999 FEW017 SCT090
TEMPO 2100/2106 24010KT FEW016CB BKN090

Australian International

The availability of aerodrome forecasts from overseas locations is dependent on the regular international exchange of data. Some locations may at times be absent. If this problem persists, please advise webav@bom.gov.au

 back to top

YMML 20/11/2019 UTC

TAF AMD YMML 202314Z 2100/2206
36032G45KT CAVOK
FM210300 33028G40KT CAVOK
FM210500 23025G40KT 9999 FEW030
FM210600 21016G28KT 9999 FEW018
FM210800 19014KT 9999 SCT015 BKN035
FM220000 18012KT 9999 SCT040
RMK FM210000 SEV TURB BLW 5000FT TL210500
FM210500 MOD TURB BLW 5000FT TL210900
T 33 37 25 18 Q 1002 999 1007 1010

YSSY 20/11/2019 UTC

TAF AMD YSSY 202305Z 2100/2206
02012KT 5000 FU FEW015
FM210300 04018G28KT 8000 FU FEW020
FM211000 02012KT 8000 FU FEW018
FM211500 32005KT 8000 FU FEW015
FM211900 18018G28KT 8000 FU FEW010
FM220300 14014KT 8000 FU SCT015
PROB30 2100/2103 3000 FU FEW015
PROB30 2103/2110 5000 FU FEW018
PROB30 2110/2203 3000 FU FEW010
PROB30 2203/2206 5000 FU SCT015
RMK FM210600 MOD TURB BLW 5000FT TL220300
T 26 27 26 23 Q 1014 1011 1009 1008

YBBN 20/11/2019 UTC

TAF YBBN 202309Z 2100/2206
04017KT 9999 HZ FEW035
FM211100 03012KT 9000 FU SCT025
FM220000 03017KT 9999 HZ FEW030
RMK
T 26 26 24 23 Q 1019 1018 1016 1018

YSCB 20/11/2019 UTC

TAF YSCB 202308Z 2100/2200
29008KT CAVOK
FM210100 33014KT CAVOK
FM211000 35008KT CAVOK
FM211300 06005KT CAVOK
FM212300 35012KT CAVOK
RMK FM211200 MOD TURB BLW 5000FT
T 30 36 36 30 Q 1014 1012 1009 1009

YBCS 20/11/2019 UTC

TAF YBCS 202313Z 2100/2200
12012KT 9999 FEW035
FM210900 16006KT 9999 SCT030
RMK
T 29 30 29 26 Q 1013 1012 1010 1012

YBAS 20/11/2019 UTC

TAF YBAS 202340Z 2100/2200
15015KT 9999 BLDU NSC
TEMPO 2103/2108 5000 BLDU NSC
RMK
T 31 34 36 34 Q 1014 1013 1011 1012

YBMA 20/11/2019 UTC

TAF YBMA 202340Z 2100/2112
35010KT CAVOK
RMK
T 36 40 39 36 Q 1012 1010 1007 1007

YPAD 20/11/2019 UTC

TAF YPAD 202335Z 2100/2206
22015G25KT 9999 -SHRA BKN015
FM210100 22015G25KT 9999 BKN020
FM210400 22015G25KT 9999 SCT020
FM210900 19012KT 9999 SCT030
FM212300 23012KT CAVOK
RMK
T 18 20 21 19 Q 1011 1012 1012 1014

YPDN 20/11/2019 UTC

TAF YPDN 202348Z 2100/2206
30005KT 9999 SCT025
FM210200 29012KT 9999 SCT035
FM211000 30005KT 9999 SCT025
FM220200 29012KT 9999 SCT025 SCT040
PROB30 TEMPO 2105/2112 VRB20G45KT 1000 TSRA BKN010 SCT025CB
PROB30 TEMPO 2205/2206 VRB20G45KT 1000 TSRA BKN010 SCT025CB
RMK
T 31 34 33 31 Q 1012 1010 1007 1008

YPTN 20/11/2019 UTC

TAF YPTN 202348Z 2100/2200
33008KT CAVOK
RMK
T 33 38 39 37 Q 1011 1009 1006 1006

YPPH 20/11/2019 UTC

TAF YPPH 202300Z 2100/2206
15006KT CAVOK
FM210300 24014KT CAVOK
FM211000 20010KT CAVOK
FM211600 15008KT CAVOK
FM220400 23012KT CAVOK
RMK
T 16 21 23 21 Q 1021 1019 1018 1017

YPLM 20/11/2019 UTC

TAF YPLM 202307Z 2100/2200
18018KT CAVOK
FM210800 22016KT CAVOK
RMK
T 27 34 36 34 Q 1011 1011 1009 1009

YCAR 20/11/2019 UTC

TAF YCAR 202105Z 2022/2111
14017KT CAVOK
FM210400 20017G27KT CAVOK
RMK
T 19 27 29 29 Q 1013 1013 1012 1010

YPCC 20/11/2019 UTC

TAF YPCC 202306Z 2100/2200
11014KT 9999 SCT022 BKN035
RMK
T 26 28 28 28 Q 1013 1014 1013 1012

YPPD 20/11/2019 UTC

TAF AMD YPPD 202308Z 2100/2200
34014KT CAVOK
FM211200 30008KT 9999 FEW010
FM211500 24007KT 9999 SCT010
TEMPO 2115/2123 9999 BKN010
RMK
T 30 35 35 32 Q 1011 1010 1009 1009

YBTL 20/11/2019 UTC

TAF YBTL 202224Z 2100/2200
05016KT 9999 FEW040
FM211000 09010KT 9999 SCT025
RMK
T 29 30 29 26 Q 1014 1012 1011 1013

YMHB 21/11/2019 UTC

TAF AMD YMHB 210007Z 2100/2200
33015G30KT CAVOK
FM210300 17020G30KT 9999 FEW010
FM210800 18015G25KT 9999 -SHRA SCT015 BKN025
FM211000 24012KT 9999 -SHRA SCT025
FM211500 28005KT 9999 SCT025
INTER 2108/2111 4000 SHRA BKN015
RMK FM210000 SEV TURB BLW 5000FT TL210200
FM210200 MOD TURB BLW 5000FT TL210500
T 37 29 20 16 Q 993 994 996 1001

YPXM 20/11/2019 UTC

TAF YPXM 202308Z 2100/2200
13010KT 9999 SCT013 BKN020
TEMPO 2100/2200 9999 BKN010
RMK
T 25 27 27 26 Q 1014 1014 1013 1012

New Zealand

The availability of aerodrome forecasts from overseas locations is dependent on the regular international exchange of data. Some locations may at times be absent. If this problem persists, please advise webav@bom.gov.au

 back to top

NZAA 20/11/2019 UTC

TAF NZAA 202302Z 2100/2200 22015KT 9999 FEW030
BECMG 2114/2116 16008KT
BECMG 2119/2121 22015KT

NZWN 20/11/2019 UTC

TAF NZWN 202302Z 2100/2200 36012KT 9999 FEW030
BECMG 2104/2106 36015G25KT
BECMG 2121/2123 36025G35KT

NZCH 20/11/2019 UTC

TAF NZCH 202303Z 2100/2200 06012KT 9999 SCT060
BECMG 2107/2109 32005KT
BECMG 2122/2200 05010KT

YLHI 20/11/2019 UTC

TAF YLHI 202332Z 2100/2200
01008KT 9999 SCT030
RMK
T 22 22 22 20 Q 1022 1021 1019 1020

YSNF 20/11/2019 UTC

TAF YSNF 202332Z 2100/2200
17012KT 9999 SCT030
FM210900 12014KT 9999 SCT025
RMK
T 21 21 20 18 Q 1020 1019 1019 1020

Indonesia, Malaysia, Myanmar, Singapore, Thailand, Vietnam

The availability of aerodrome forecasts from overseas locations is dependent on the regular international exchange of data. Some locations may at times be absent. If this problem persists, please advise webav@bom.gov.au

 back to top

WADA

TAF not available.

WAAA 20/11/2019 UTC

TAF WAAA 202300Z 2100/2206 12005KT 9999 FEW019
BECMG 2102/2104 27012KT SCT018
BECMG 2111/2113 10005KT 8000

WIII 20/11/2019 UTC

TAF WIII 202300Z 2100/2206 18004KT 8000 SCT020 BECMG 2102/2104 35012KT TEMPO 2109/2112
5000 SHRA FEW018CB BKN019

WIHH 20/11/2019 UTC

TAF WIHH 202300Z 2100/2200 03010KT 6000 SCT020
BECMG 2112/2114 20005KT

WIMM 20/11/2019 UTC

TAF WIMM 202300Z 2100/2200 VRB05KT 4000 HZ BKN017
BECMG 2103/2105 03007KT 8000 FEW018
BECMG 2113/2115 VRB04KT 4000 HZ

WIPP 20/11/2019 UTC

TAF WIPP 202300Z 2100/2124 22005KT 9000 SCT010
TEMPO 2110/2114 1000 TSRA FEW010CB BKN010
TEMPO 2121/2124 1000 BR

WIKD

TAF not available.

WARR 20/11/2019 UTC

TAF WARR 202300Z 2100/2200 27005KT 5000 HZ SCT020
BECMG 2101/2103 10013KT 9999 NSW
TEMPO 2105/2108 SCT020CB
BECMG 2115/2117 26005KT 4000 HZ

WADD 20/11/2019 UTC

TAF WADD 202300Z 2100/2200 VRB05KT 9999 SCT017
TEMPO 2102/2106 23006KT
BECMG 2107/2109 13010KT
BECMG 2114/2116 VRB05KT

WRRA

TAF not available.

WALL 20/11/2019 UTC

TAF WALL 202300Z 2100/2206 25002KT 9999 FEW020 TEMPO 2105/2108 FEW018CB

WSSS 20/11/2019 UTC

TAF WSSS 202300Z 2100/2206 04008KT 8000 FEW015 SCT020
TEMPO 2103/2108 3000 TSRA FEW012CB BKN015

WSAP 20/11/2019 UTC

TAF WSAP 202300Z 2100/2206 04008KT 8000 FEW015 SCT020
TEMPO 2103/2108 3000 TSRA FEW012CB BKN015

WMKK 20/11/2019 UTC

TAF WMKK 202300Z 2100/2206 06005KT 9999 FEW017CB
TEMPO 2108/2112 22010KT 3000 TSRA FEW010 FEW016CB SCT018

WMSA 20/11/2019 UTC

TAF WMSA 202300Z 2100/2200 07005KT 9999 FEW017CB
TEMPO 2108/2112 22010KT 3000 TSRA FEW016CB SCT018

WMKP 20/11/2019 UTC

TAF WMKP 202300Z 2100/2200 VRB03KT 9999 FEW020
BECMG 2103/2105 22010KT
TEMPO 2109/2113 5000 TSRA FEW010 FEW017CB
BECMG 2113/2115 VRB03KT FEW025

WMKJ 20/11/2019 UTC

TAF WMKJ 202300Z 2100/2200 02005KT 8000 FEW017CB
TEMPO 2100/2103 4000 TSRA FEW010 FEW017CB SCT018
TEMPO 2105/2109 3000 TSRA FEW016CB SCT018

WMKD 20/11/2019 UTC

TAF WMKD 202300Z 2100/2200 35005KT 9999 FEW017CB
TEMPO 2105/2110 4000 TSRA FEW016CB

WMKB 20/11/2019 UTC

TAF WMKB 202300Z 2100/2200 07005KT 9999 FEW020
BECMG 2103/2105 30010KT SCT020
TEMPO 2109/2113 6000 -TSRA FEW017CB
BECMG 2111/2113 8000 FEW024

VTBD 20/11/2019 UTC

TAF VTBD 202300Z 2100/2206 09008KT 9999 FEW025
BECMG 2120/2122 02005KT
BECMG 2202/2204 08008KT

VTBS 20/11/2019 UTC

TAF VTBS 202300Z 2100/2206 06008KT 9999 FEW025

VTBU 20/11/2019 UTC

TAF VTBU 202300Z 2100/2124 36004KT 7000 FEW020
BECMG 2103/2105 18008KT 8000
BECMG 2110/2112 01004KT 5000 BR

VTCC 20/11/2019 UTC

TAF VTCC 202300Z 2100/2206 16005KT 9999 FEW035

VTSP 20/11/2019 UTC

TAF VTSP 202300Z 2100/2206 10010KT 9999 FEW020
TEMPO 2106/2112 10015G30KT 3000 TSRA FEW018CB SCT020 BKN100

VTSS 20/11/2019 UTC

TAF VTSS 202300Z 2100/2124 09012KT 9999 FEW020 SCT100
TEMPO 2106/2112 10010G20KT 5000 TSRA FEW016CB SCT018 BKN100
TEMPO 2112/2118 5000 TSRA FEW016CB SCT018 BKN100

VVTS 20/11/2019 UTC

TAF VVTS 202300Z 2100/2206 VRB03KT 3000 BR SCT017 SCT040
BECMG 2102/2103 9999 NSW
BECMG 2106/2107 18010KT
TEMPO 2108/2112 TS SCT015 FEW017CB

VDPP 20/11/2019 UTC

TAF VDPP 202300Z 2100/2118 05007KT 9999 SCT017

VVNB 20/11/2019 UTC

TAF VVNB 202300Z 2100/2124 05005KT 9999 SCT025
BECMG 2120/2121 4000 BR

VYYY 20/11/2019 UTC

TAF VYYY 202300Z 2100/2124 06006KT 8000 SCT020
BECMG 2100/2102 4000 BR
TEMPO 2106/2112 6000 HZ

South America

The availability of aerodrome forecasts from overseas locations is dependent on the regular international exchange of data. Some locations may at times be absent. If this problem persists, please advise webav@bom.gov.au

 back to top

SAEZ 20/11/2019 UTC

TAF SAEZ 202300Z 2100/2124 11005KT CAVOK TX29/2118Z TN18/2109Z
BECMG 2104/2106 12015G25KT 9999 BKN040
BECMG 2118/2120 07010KT 9999 SCT030 FEW040CB
BECMG 2122/2123 VRB10KT 6000 TSRA BKN040 FEW040CB

SAVC 21/11/2019 UTC

TAF SAVC 202300Z 2100/2124 28015G35KT 9999 SCT035 TX23/2119Z
TN11/2110Z BECMG 2114/2116 27015KT CAVOK PROB30 TEMPO 2118/2121
07015KT 9999 SCT030

SCIE 21/11/2019 UTC

TAF SCIE 202210Z 2100/2124 21008KT CAVOK TX21/2118Z TN12/2111Z TEMPO
2106/2112 17006KT BECMG 2114/2116 21010KT BECMG 2118/2120
24015KT

SACO 20/11/2019 UTC

TAF SACO 202300Z 2100/2124 20015G25KT 5000 TS SHRA BKN035 FEW040CB
TX33/2118Z TN18/2110Z
BECMG 2101/2103 02015KT 9999 VCTS SHRA BKN040 FEW050CB
BECMG 2113/2116 02015KT 9999 SCT030TCU

SCIP 21/11/2019 UTC

TAF SCIP 202250Z 2100/2200 13010KT 9999 FEW025 SCT050
TN19/2112Z TX23/2120Z
TEMPO 2103/2112 14015KT 7000 -SHRA SCT020 BKN040
BECMG 2113/2115 13016KT

SAZM 20/11/2019 UTC

TAF SAZM 202300Z 2100/2124 16010KT 9999 FEW040CB OVC060 TX24/2118Z
TN14/2110Z
BECMG 2103/2106 09010KT
BECMG 2111/2113 05015KT 7000 RA BKN020 FEW045TCU OVC050

SAME 20/11/2019 UTC

TAF SAME 202300Z 2100/2124 18005KT 9999 FEW050TCU TX35/2120Z
TN23/2110Z
BECMG 2107/2109 20005KT 9999 BKN040
BECMG 2114/2116 14010KT 9999 SCT040TCU

SUMU 20/11/2019 UTC

TAF SUMU 202330Z 2100/2124 04008KT CAVOK TX33/2118Z TN21/2109Z

SAZN 21/11/2019 UTC

TAF SAZN 202300Z 2100/2124 VRB03KT CAVOK
TX25/2119Z TN14/2109Z
BECMG 2103/2105 25015KT
BECMG 2112/2114 16010KT

SCTE 20/11/2019 UTC

TAF SCTE 202233Z 2100/2200 23008KT CAVOK
TN02/2110Z TX17/2119Z
BECMG 2103/2105 20003KT 9999 SCT030
PROB40 TEMPO 2108/2111 VRB01KT 2000 BR BKN004
BECMG 2115/2117 16010KT CAVOK

SCCI 20/11/2019 UTC

TAF SCCI 202222Z 2100/2200 27017G27KT 9999 FEW040
TN03/2109Z TX13/2018Z
BECMG 2100/2102 26010KT
BECMG 2105/2107 29012KT
TEMPO 2109/2113 FEW015 SCT020
BECMG 2112/2114 29020G35KT FEW035
TEMPO 2120/2200 30030G40KT

SAWG 21/11/2019 UTC

TAF SAWG 202300Z 2100/2124 25020G30KT 9999 -DZ SCT035 BKN070
TX17/2119Z TN05/2110Z BECMG 2101/2103 29015KT BECMG 2120/2122 05015KT
9999 -RADZ SCT030 OVC050

SAAR 20/11/2019 UTC

TAF SAAR 202300Z 2100/2124 11005KT CAVOK TX33/2119Z TN22/2109Z
BECMG 2104/2106 VRB03KT BKN030 OVC100
TEMPO 2105/2111 6000 TSRA SCT020 FEW045CB BKN045
BECMG 2112/2114 36010KT CAVOK

SAZS 20/11/2019 UTC

TAF SAZS 202300Z 2100/2124 29015KT CAVOK TX20/2118Z TN00/2109Z
BECMG 2102/2104 VRB03KT
BECMG 2112/2114 29010KT

SCEL 21/11/2019 UTC

TAF SCEL 202210Z 2100/2124 18008KT CAVOK TX31/2119Z TN13/2111Z BECMG
2105/2107 VRB02KT TEMPO 2108/2112 8000 SCT180 BECMG
2115/2117 18006KT BKN180 BECMG 2119/2121 21016KT FEW180
BKN200

SAWH 21/11/2019 UTC

TAF SAWH 202300Z 2100/2124 23020G35KT 9999 DZ SCT030 BKN040
TX12/2119Z TN00/2110Z PROB40 TEMPO 2101/2109 32005KT 5000 BRDZ SCT020
BECMG 2110/2112 34010KT CAVOK BECMG 2114/2116 36010KT 8000 SHRA
SCT030 SCT040TCU OVC050

Guam, Japan, Korea

The availability of aerodrome forecasts from overseas locations is dependent on the regular international exchange of data. Some locations may at times be absent. If this problem persists, please advise webav@bom.gov.au

 back to top

PGUA 20/11/2019 UTC

TAF AMD PGUA 202205Z 2022/2124 06010G15KT 9999 SCT015 BKN040
QNH2982INS
TEMPO 2103/2108 06015G20KT 9000 -SHRA BKN020 TX30/2100Z
TN23/2118Z

PGUM 20/11/2019 UTC

TAF PGUM 202336Z 2100/2206 06015KT P6SM VCSH SCT020 SCT050
FM210400 05015KT P6SM VCSH SCT020 SCT040 SCT070

PGSN 20/11/2019 UTC

TAF PGSN 202336Z 2100/2124 06016KT P6SM VCSH SCT018 SCT040

PTRO 20/11/2019 UTC

TAF PTRO 202336Z 2100/2124 05007KT P6SM VCSH SCT016 SCT110

RJOO

20/11/2019 UTC

TAF RJOO 202306Z 2100/2206 03005KT 9999 FEW030 BECMG 2121/2200
06007KT

RJOB 20/11/2019 UTC

TAF RJOB 202305Z 2100/2206 06008KT 9999 FEW025

RJGG 20/11/2019 UTC

TAF RJGG 202307Z 2100/2206 34016KT 9999 FEW030 BECMG 2104/2106
36006KT

RJCC 20/11/2019 UTC

TAF RJCC 202305Z 2100/2206 17005KT 9999 FEW020 BKN040 BECMG
2100/2102 30012KT BECMG 2110/2112 17007KT

RJSS 20/11/2019 UTC

TAF RJSS 202305Z 2100/2206 30015KT 9999 FEW030 SCT050 TEMPO
2100/2106 30020G30KT BECMG 2109/2111 24004KT BECMG
2200/2203 14007KT

RJFK 20/11/2019 UTC

TAF RJFK 202310Z 2100/2206 10010KT 9999 FEW030 BECMG 2118/2121
03006KT BECMG 2200/2203 11006KT

RJAA 20/11/2019 UTC

TAF RJAA 202305Z 2100/2206 36006KT 9999 FEW030 BECMG 2106/2108
13006KT BECMG 2110/2112 36006KT

RJBB 20/11/2019 UTC

TAF RJBB 202305Z 2100/2206 04012KT 9999 FEW030

RJTT 20/11/2019 UTC

TAF RJTT 202306Z 2100/2206 01010KT 9999 FEW030 BECMG 2106/2108
10012KT BECMG 2112/2115 35014KT

RJFF 20/11/2019 UTC

TAF RJFF 202315Z 2100/2206 11004KT 9999 FEW040 BECMG 2101/2103
04008KT BECMG 2108/2110 14006KT BECMG 2203/2206 03006KT

RJFT 20/11/2019 UTC

TAF RJFT 202306Z 2100/2206 09011KT 9999 VA FEW040

RJFU 20/11/2019 UTC

TAF RJFU 202311Z 2100/2206 14006KT 9999 FEW030 BECMG 2100/2102
36005KT BECMG 2108/2110 14006KT BECMG 2200/2203 02005KT

ROAH 20/11/2019 UTC

TAF ROAH 202305Z 2100/2206 07018KT 9999 FEW020 BKN030 TEMPO
2100/2106 07020G30KT TEMPO 2106/2112 08020G30KT 4000 SHRA
TEMPO 2112/2118 08016G26KT TEMPO 2118/2121 4000 SHRA SCT008
BKN015 FEW020CB

RKSS 20/11/2019 UTC

TAF RKSS 202300Z 2100/2206 08005KT CAVOK TX09/2105Z TN02/2121Z
TX16/2205Z

RKSI 20/11/2019 UTC

TAF RKSI 202300Z 2100/2206 06006KT CAVOK
TX09/2105Z TN05/2121Z TX15/2205Z
BECMG 2110/2111 12006KT

RKSM 20/11/2019 UTC

TAF RKSM 202300Z 2100/2206 03006KT 9999 SCT200 BECMG 2107/2108
03006KT 9999 BKN100 BECMG 2202/2203 03006KT 9999 SCT030
TN00/2121Z TX15/2206Z

RKPK 20/11/2019 UTC

TAF RKPK 202300Z 2100/2206 36006KT 9999 SCT030 TX15/2106Z
TN04/2121Z
BECMG 2114/2115 15006KT

RKPC 20/11/2019 UTC

TAF RKPC 202300Z 2100/2206 08010KT 9999 SCT030 TX17/2105Z TN12/2120Z
TX19/2205Z BECMG 2111/2112 14006KT BECMG 2200/2201 05010KT

Indonesia, Pakistan, Singapore, India, Sri Lanka, United Arab Emirates

The availability of aerodrome forecasts from overseas locations is dependent on the regular international exchange of data. Some locations may at times be absent. If this problem persists, please advise webav@bom.gov.au

 back to top

WIII 20/11/2019 UTC

TAF WIII 202300Z 2100/2206 18004KT 8000 SCT020 BECMG 2102/2104 35012KT TEMPO 2109/2112
5000 SHRA FEW018CB BKN019

WSSS 20/11/2019 UTC

TAF WSSS 202300Z 2100/2206 04008KT 8000 FEW015 SCT020
TEMPO 2103/2108 3000 TSRA FEW012CB BKN015

VCBI 20/11/2019 UTC

TAF VCBI 202300Z 2100/2206 VRB05KT 9999 SCT017 TX31/2108Z
TN23/2100Z
TEMPO 2100/2103 5000 BR PROB30
TEMPO 2111/2116 6000 -TSRA/SHRA SCT017 FEW018CB

VECC 20/11/2019 UTC

TAF VECC 202300Z 2100/2206 00000KT 1400 BR NSC
BECMG 2102/2104 35005KT 2500 BR FEW020
BECMG 2105/2107 3500 HZ NSC
BECMG 2114/2116 00000KT 2800 HZ
BECMG 2123/2201 1400 BR
BECMG 2203/2205 35005KT 2600 HZ

VOMM 20/11/2019 UTC

TAF VOMM 202300Z 2100/2206 VRB02KT 3000 BR SCT020 SCT100
TEMPO 2100/2103 2000 TSRA/RA SCT018 FEW025CB BKN080
BECMG 2105/2106 03010KT 5000 HZ
BECMG 2108/2109 6000
TEMPO 2109/2112 SCT018 FEW025CB BKN080
BECMG 2105/2116 VRB02KT 5000 BR

VOTV 20/11/2019 UTC

TAF VOTV 202300Z 2100/2206 VRB03KT 3000 BR FEW015 FEW025CB BKN080
BECMG 2103/2104 29010KT 4000 HZ FEW015 SCT080
BECMG 2105/2106 6000 SCT015 FEW025CB SCT080
TEMPO 2111/2116 4000 .TSRA RA SCT012 FEW025CB BKN080
BECMG 2117/2018 VRB03KT 3000 BR SCT015 SCT080
BECMG 2203/2204 29010KT 4000 HZ SCT015 FEW025CB SCT080

VABB 20/11/2019 UTC

TAF VABB 202300Z 2100/2206 VRB03KT 2500 HZ FEW100
BECMG 2103/2105 09006KT
BECMG 2107/2109 29008KT 3000 FU
BECMG 2116/2118 04005KT 2500 HZ
BECMG 2121/2123 VRB03KT
BECMG 2204/2206 11005KT 3000 HZ

VAAH 20/11/2019 UTC

TAF VAAH 202300Z 2100/2206 05004KT 4000 BR HZ NSC
TEMPO 2101/2104 08005KT 2000
BECMG 2107/2109 11004KT KT 6000
BECMG 2112/2114 05003KT 4000 HZ FU
BECMG 2201/2203 09004KT 2000 BR HZ
BECMG 2204/2206 4000 HZ

VILK 20/11/2019 UTC

TAF VILK 202300Z 2100/2206 00000KT 0800 MIFG FG NSC
BECMG 2104/2106 29004KT 3000 HZ
BECMG 2122/2124 00000KT 1500 BR
BECMG 2204/2206 29004KT 3000 HZ

VANP 20/11/2019 UTC

TAF VANP 202300Z 2100/2206 06003KT 2000 BR NSC
BECMG 2105/2107 3000 HZ NSC
BECMG 2201/2203 2000 BR NSC
BECMG 2205/2206 2500 HZ NSC

VRMM 20/11/2019 UTC

TAF VRMM 202300Z 2100/2206 14006KT 9999 FEW018TCU
TEMPO 2100/2106 6000 -TSRA FEW018CB

VOHS 20/11/2019 UTC

TAF VOHS 202300Z 2100/2206 14006KT 3000 BR FEW015 TEMPO 2100/2104
12005KT 1200 BR SCT010 SCT120 TEMPO 2104/2107 11006KT 3000 BR FEW015
SCT090 TEMPO 2107/2112 09005KT 4000 HZ SCT015 SCT025 TEMPO 2112/2121
12008KT 4000 BR FEW010 TEMPO 2121/2204 13006KT 3000 BR DZ SCT010
SCT025 BKN080 BECMG 2204/2206 11006KT 6000 FEW015 SCT120

OPKC 20/11/2019 UTC

TAF OPKC 202130Z 2100/2206 05010KT 6000 05010KT 6000 NSC TEMPO
2100/2104 VRB03KT 2000 BR NSC
FM211900 02005KT 5000 FU NSC TEMPO 2200/2204 03005KT 2000 BR SCT030

OBBI 20/11/2019 UTC

TAF OBBI 202300Z 2100/2206 33017KT 9999 FEW030

OMAA 20/11/2019 UTC

TAF OMAA 202300Z 2100/2206 31013KT 8000 FEW035
BECMG 2120/2122 23006KT
BECMG 2203/2205 34012KT

OMDB 20/11/2019 UTC

TAF OMDB 202301Z 2100/2206 29015KT 8000 FEW035
PROB40 2100/2104 23006KT
BECMG 2116/2118 10007KT

OOMS 20/11/2019 UTC

TAF OOMS 202300Z 2100/2206 25005KT 8000 SCT030 BECMG 2106/2108
32014KT PROB30 TEMPO 2110/2116 VRB10G22KT 4000 TSRA
FEW025CB BKN035 TEMPO 2116/2121 VRB02KT

OMSJ 20/11/2019 UTC

TAF OMSJ 202301Z 2100/2206 29015KT 7000 FEW040
PROB40 2100/2104 21006KT
BECMG 2116/2118 10005KT

Malawi, Mauritius, South Africa, Zambia, Zimbabwe

The availability of aerodrome forecasts from overseas locations is dependent on the regular international exchange of data. Some locations may at times be absent. If this problem persists, please advise webav@bom.gov.au

 back to top

FIMP 20/11/2019 UTC

TAF FIMP 202330Z 2100/2206 33003KT 9999 SCT016 BECMG 2104/2106
09010KT PROB30 TEMPO 2112/2115 5000 -SHRA FEW008 FEW012TCU BKN015
BECMG 2118/2120 VRB02KT

FMEE 20/11/2019 UTC

TAF FMEE 202300Z 2100/2206 16005KT 9999 FEW015 SCT023 BECMG 2103/2105
01010KT BECMG 2114/2116 16005KT BECMG 2204/2206 02012KT

FLKK 20/11/2019 UTC

TAF FLKK 202200Z 2100/2206 VRB03KT 9999 FEW///CB BKN090 PROB30 TEMPO
2100/2102 9000 -TSRA BECMG 2105/2109 32005KT 9999 FEW025 SCT100
PROB30 TEMPO 2112/2114 9000 -TSRA FEW035CB BKN040

FWKI 20/11/2019 UTC

TAF FWKI 201600Z 2018/2124 09005KT CAVOK BECMG 2018/2020 VRB02KT
FEW030 BECMG 2101/2103 08004KT CAVOK BECMG 2106/2108 07010KT
9999 FEW020 BECMG 2110/2112 07010KT 9999 FEW025CB SCT030
FM211600 07005KT CAVOK

FAOR 21/11/2019 UTC

TAF AMD FAOR 210000Z 2100/2206 36010KT 9999 SCT010
TX25/2113Z TN15/2104Z
PROB40 TEMPO 2101/2105 4000 -SHRA BR BKN005 FEW035TCU
BECMG 2107/2109 30012KT SCT035
BECMG 2116/2118 VRB03KT CAVOK
PROB30 TEMPO 2118/2121 -TSRA FEW035CB
BECMG 2204/2206 34010KT

FVHA

TAF not available.

FAWK 20/11/2019 UTC

TAF FAWK 201800Z 2019/2106 NIL

FABL 20/11/2019 UTC

TAF FABL 202200Z 2100/2124 VRB03KT CAVOK
TX28/2112Z TN12/2103Z
BECMG 2110/2112 26010KT
BECMG 2116/2118 34010KT

FALE 20/11/2019 UTC

TAF FALE 202200Z 2100/2206 02005KT 9999 BKN020
TX26/2112Z TN17/2103Z
TEMPO 2100/2105 4000 SHRA BKN010 OVC030
BECMG 2102/2104 04015KT
BECMG 2110/2112 SCT030
BECMG 2118/2120 02005KT BKN020
FM220400 20010KT 9999 BKN020

YPCC 20/11/2019 UTC

TAF YPCC 202306Z 2100/2200
11014KT 9999 SCT022 BKN035
RMK
T 26 28 28 28 Q 1013 1014 1013 1012

United States (includes Hawaii) and Mexican emergency/alternates

The availability of aerodrome forecasts from overseas locations is dependent on the regular international exchange of data. Some locations may at times be absent. If this problem persists, please advise webav@bom.gov.au

 back to top

PHNL 20/11/2019 UTC

TAF PHNL 202342Z 2100/2206 05014G20KT P6SM FEW020 SCT035
FM210600 06009KT P6SM FEW025 FEW040
FM212000 06018G25KT P6SM FEW020 SCT035
FM220500 06012KT P6SM FEW020 SCT035

PHLI 20/11/2019 UTC

TAF PHLI 202342Z 2100/2124 04015G21KT P6SM FEW020 SCT030
FM210700 05013KT P6SM VCSH SCT025 SCT030
FM211800 06017G22KT P6SM VCSH SCT020 SCT030

PHOG 20/11/2019 UTC

TAF PHOG 202342Z 2100/2124 05016G23KT P6SM FEW025 SCT040
FM210500 05010KT P6SM VCSH FEW025 SCT040
FM212100 06021G30KT P6SM FEW025 SCT040
AMD LTD TO VIS AND WIND 2109/2116

PHTO 20/11/2019 UTC

TAF PHTO 202342Z 2100/2124 06008KT P6SM VCSH SCT020 SCT035
FM210600 25005KT P6SM VCSH SCT025 SCT040
FM212100 06009KT P6SM VCSH SCT020 SCT035

PKMJ 20/11/2019 UTC

TAF PKMJ 202336Z 2100/2124 06011KT P6SM VCSH SCT015 SCT050 BKN120
TEMPO 2100/2102 4SM SHRA SCT015 BKN025 OVC100

KLAX 20/11/2019 UTC

TAF KLAX 202340Z 2100/2206 07010KT P6SM VCSH SCT040 BKN150
FM210200 07008KT P6SM VCSH OVC040
FM211100 07005KT P6SM OVC045
FM212000 25009KT P6SM BKN050
FM220400 VRB03KT P6SM BKN040

KONT 20/11/2019 UTC

TAF KONT 202338Z 2100/2206 22010KT P6SM SHRA VCTS BKN025 BKN040CB
FM210100 VRB05KT P6SM -SHRA SCT020 BKN035
FM210300 VRB04KT P6SM VCSH SCT020 BKN035
FM212200 25011KT P6SM FEW020 SCT035

KPMD 20/11/2019 UTC

TAF KPMD 202340Z 2100/2124 22007KT P6SM VCSH SCT035 BKN200
FM210300 25005KT P6SM VCSH BKN035
FM211200 VRB03KT P6SM OVC025
FM211800 VRB03KT P6SM SCT025 BKN040
FM212100 23006KT P6SM BKN050

KSAN 20/11/2019 UTC

TAF KSAN 202338Z 2100/2206 24012G22KT P6SM -SHRA VCTS SCT025 BKN040CB
TEMPO 2101/2102 3SM SHRA BR BKN025
FM210200 23010G18KT P6SM -SHRA SCT020 BKN035
FM210900 27007KT P6SM -SHRA SCT020 BKN030
FM212000 23010KT P6SM SCT025 SCT050
FM220200 23009KT P6SM SCT050

KLAS 20/11/2019 UTC

TAF AMD KLAS 202336Z 2100/2206 20009G17KT P6SM VCSH FEW050 SCT100
FM210200 17011KT P6SM VCSH SCT050 BKN100
FM210700 21008KT P6SM VCSH BKN100
FM211200 04006KT P6SM VCSH BKN060
FM211800 VRB05KT P6SM BKN050
FM220300 35006KT P6SM BKN050

KOAK 20/11/2019 UTC

TAF KOAK 202341Z 2100/2206 02008KT P6SM FEW035
FM210400 02007KT P6SM SKC WS020/03030KT
FM211000 07004KT P6SM SKC
FM211800 15008KT P6SM SKC
FM220000 32008KT P6SM SKC

KSFO 20/11/2019 UTC

TAF KSFO 202341Z 2100/2206 28017KT P6SM SKC
FM210400 30005KT P6SM SKC
FM210800 VRB04KT P6SM SKC
FM211100 05004KT P6SM SKC
FM211400 09007KT P6SM SKC
FM220100 21005KT P6SM SKC

KSMF 20/11/2019 UTC

TAF KSMF 202342Z 2100/2124 36018G25KT P6SM SKC
FM210300 35012KT P6SM SKC
FM210700 34004KT P6SM FEW250

KSCK 20/11/2019 UTC

TAF KSCK 202342Z 2100/2124 34014KT P6SM SCT250
FM210300 26008KT P6SM SKC
FM210600 VRB05KT P6SM FEW250
TEMPO 2114/2118 5SM BR

KFAT 20/11/2019 UTC

TAF KFAT 202320Z 2100/2124 13010KT P6SM SCT035 BKN200
FM210300 VRB03KT P6SM SCT200
FM211200 VRB03KT 5SM BR SCT200
TEMPO 2113/2117 3SM BR
FM211800 15005KT P6SM SKC

KJFK 20/11/2019 UTC

TAF KJFK 202335Z 2100/2206 32014KT P6SM FEW040 BKN080
FM210200 33011KT P6SM SCT100
FM210700 33010KT P6SM FEW250
FM211700 30008KT P6SM SCT250
FM212000 23008KT P6SM FEW150 SCT250
FM220200 21007KT P6SM SCT100 BKN200

KPHL 20/11/2019 UTC

TAF KPHL 202322Z 2100/2206 32009KT P6SM SCT040
TEMPO 2101/2103 BKN040
FM211200 32005KT P6SM FEW040
FM211700 27007KT P6SM SCT200
FM212200 23006KT P6SM BKN200

KPIT 20/11/2019 UTC

TAF KPIT 202320Z 2100/2206 32005KT P6SM OVC035
FM210200 18002KT P6SM SCT035
FM211000 VRB05KT P6SM SCT250
FM211700 18007KT P6SM OVC100
FM220100 21012G18KT P6SM OVC040

KDEN 20/11/2019 UTC

TAF KDEN 202333Z 2100/2206 03011KT 2SM -SN BR SCT006 OVC012 TEMPO
2100/2102 3/4SM -SN BR BKN006
FM210300 01012KT 4SM -SN BR OVC008
FM210700 03010KT 5SM BR SCT005 OVC010
FM212000 09005KT P6SM VCSH SCT008 OVC015 TEMPO 2120/2124
4SM -SN BR BKN008
FM220000 09005KT 4SM -SN BR BKN008 OVC012

KMCI 20/11/2019 UTC

TAF KMCI 202331Z 2100/2124 18025G35KT P6SM -RA SCT020 OVC080
FM210300 18018G28KT 4SM RA BR OVC015
FM211100 25015KT P6SM VCSH OVC018
FM211400 33012KT P6SM OVC022
FM212200 35009KT P6SM BKN040

KDFW 20/11/2019 UTC

TAF KDFW 202320Z 2100/2206 17018KT P6SM VCSH SCT040 BKN120
FM210700 18014KT P6SM BKN015
TEMPO 2112/2116 BKN008
FM211700 19011KT P6SM VCSH BKN021
FM220500 33012KT 6SM -SHRA VCTS OVC007CB

KAUS 20/11/2019 UTC

TAF KAUS 202332Z 2100/2206 15015KT P6SM FEW050 SCT090 BKN200
FM210300 17010KT P6SM OVC012
FM210800 18010KT P6SM VCSH OVC012
FM211900 17014KT P6SM VCSH BKN035
FM220300 17008KT P6SM OVC012

KELP 20/11/2019 UTC

TAF KELP 202341Z 2100/2124 26010G20KT P6SM FEW070 SCT150
FM210200 24007KT P6SM FEW080 BKN250
FM211000 10006KT P6SM SCT050 OVC150
FM212000 28015KT P6SM SHRA FEW030 OVC050

KIAH 20/11/2019 UTC

TAF KIAH 202323Z 2100/2206 13015KT P6SM BKN035 BKN250
FM210500 15011KT P6SM FEW009 BKN025
FM210900 15007KT P6SM VCSH FEW007 BKN025
FM211400 14009G18KT P6SM BKN050
FM220000 14012KT P6SM OVC035

KSAT 20/11/2019 UTC

TAF KSAT 202332Z 2100/2206 14014KT P6SM FEW050 BKN250
FM210300 16010KT P6SM OVC012
FM211900 15013KT P6SM BKN035
FM220300 16010KT P6SM OVC012

KTUS 20/11/2019 UTC

TAF KTUS 202339Z 2100/2124 20015G23KT P6SM SCT050 BKN070
FM210400 24016G26KT P6SM VCSH OVC050
TEMPO 2104/2108 3SM -SHRA BKN025 OVC050
FM210800 25008KT P6SM VCSH SCT035 OVC050
FM211300 20007KT P6SM SCT050 BKN070
FM211900 25011KT P6SM SCT060 BKN090

MMCU 20/11/2019 UTC

TAF MMCU 201627Z 2018/2118 23015KT P6SM SCT030
BECMG 2020/2021 23020KT
FM210200 25010KT P6SM SKC
BECMG 2102/2103 18005KT
FM211700 21010KT P6SM SCT030

MMHO 20/11/2019 UTC

TAF MMHO 201729Z 2018/2118 18010KT P6SM BKN025 BKN070
BECMG 2020/2021 21015KT
FM210200 23010KT P6SM BKN025 BKN070
PROB40 2103/2107 5SM RA
FM210800 25008KT P6SM BKN020 OVC070
PROB40 2109/2113 6SM -RA

MMLT 20/11/2019 UTC

TAF MMLT 201709Z 2018/2118 23010KT P6SM BKN040 BKN240
FM210300 27010KT P6SM -RA OVC020
TEMPO 2106/2110 4SM RA
FM211500 22010KT P6SM OVC050

MMSD 20/11/2019 UTC

TAF MMSD 201709Z 2018/2118 24010KT P6SM SCT030 SCT100
TEMPO 2020/2024 BKN020
BECMG 2101/2102 00000KT
FM211400 32010KT P6SM SCT050

Papua New Guinea, Southwest Pacific

The availability of aerodrome forecasts from overseas locations is dependent on the regular international exchange of data. Some locations may at times be absent. If this problem persists, please advise webav@bom.gov.au

 back to top

NWWW 20/11/2019 UTC

TAF NWWW 202300Z 2100/2124 14022G32KT 9999 FEW050 BECMG 2107/2110
12008KT BECMG 2121/2124 14018KT

NFFN 20/11/2019 UTC

TAF NFFN 202257Z 2100/2124
29010KT 9999 SCT026 SCT045
PROB30 TEMPO 2100/2112 5000 TSRA BKN015 FEW018CB
BECMG 2104/2106 11006KT
BECMG 2122/2124 30010KT

NFNA 20/11/2019 UTC

TAF NFNA 202258Z 2100/2124
13006KT 9999 SCT020 BKN045
PROB30 TEMPO 2100/2112 5000 TSRA BKN015 FEW018CB
PROB40 TEMPO 2112/2124 4000 SHRA BKN014

NFTF 20/11/2019 UTC

TAF NFTF 202257Z 2100/2124
10008KT 9999 FEW009 SCT016
PROB30 TEMPO 2106/2118 5000 SHRA SCT008 BKN015

NSTU 20/11/2019 UTC

TAF NSTU 202342Z 2100/2124 08009KT P6SM VCSH SCT020 SCT040 BKN100

NVVV 20/11/2019 UTC

TAF NVVV 202220Z 2100/2124 10011KT 9999 SCT020

NCRG 20/11/2019 UTC

TAF NCRG 202259Z 2100/2124
11009KT 9999 SCT020 SCT040
PROB30 TEMPO 2112/2118 5000 SHRA BKN015

NTAA 20/11/2019 UTC

TAF NTAA 202300Z 2100/2206 02010KT 9999 FEW016TCU SCT020 SCT045
PROB40 TEMPO 2100/2118 02016G26KT 3000 SHRA BKN016TCU BKN040

NTTG

TAF not available.

NTTO

TAF not available.

NSFA 20/11/2019 UTC

TAF NSFA 202258Z 2100/2124
13006KT 9999 -SHRA SCT020 SCT050
PROB40 TEMPO 2100/2112 3000 TSRA BKN015 FEW018CB

ANYN 20/11/2019 UTC

TAF ANYN 201030Z 2012/2112 29005KT 9999 FEW020 SCT040
T 28 27 27 30
Q 1008 1006 1006 1008

AGGH 20/11/2019 UTC

TAF AGGH 202310Z 2100/2124

AGGM 20/11/2019 UTC

TAF AGGM 202310Z 2100/2124 18005KT 9999 -SHRA FEW016 BKN100

INTER 2100/2107 4000 TSSH BKN015 FEW016CB

Q 1008 1006 1005 1007

AGGN 20/11/2019 UTC

TAF AGGN 202310Z 2100/2124 18005KT 9999 SHRA FEW016 BKN100

PROB40 INTER 2100/2110 4000 TSSH SCT015 FEW016CB BKN025

Q 1008 1006 1005 1007

AYPY 20/11/2019 UTC

TAF AYPY 202207Z 2100/2124 VRB03KT 9999 FEW018 BKN040
FM210200 21007KT 9999 -SHRA SCT018 SCT040

AYNZ

TAF not available.

AYMD

TAF not available.

AYMH

TAF not available.

AYTA

TAF not available.

PKMJ 20/11/2019 UTC

TAF PKMJ 202336Z 2100/2124 06011KT P6SM VCSH SCT015 SCT050 BKN120
TEMPO 2100/2102 4SM SHRA SCT015 BKN025 OVC100

NGTA 20/11/2019 UTC

TAF NGTA 202258Z 2100/2124
30007KT 9999 SCT018 BKN100
PROB40 TEMPO 2100/2118 5000 TSRA BKN015 FEW018CB

PTRO 20/11/2019 UTC

TAF PTRO 202336Z 2100/2124 05007KT P6SM VCSH SCT016 SCT110

YLHI 20/11/2019 UTC

TAF YLHI 202332Z 2100/2200
01008KT 9999 SCT030
RMK
T 22 22 22 20 Q 1022 1021 1019 1020

YSNF 20/11/2019 UTC

TAF YSNF 202332Z 2100/2200
17012KT 9999 SCT030
FM210900 12014KT 9999 SCT025
RMK
T 21 21 20 18 Q 1020 1019 1019 1020

Indonesia, Timor Leste, Papua New Guinea

The availability of aerodrome forecasts from overseas locations is dependent on the regular international exchange of data. Some locations may at times be absent. If this problem persists, please advise webav@bom.gov.au

 back to top

WAAA 20/11/2019 UTC

TAF WAAA 202300Z 2100/2206 12005KT 9999 FEW019
BECMG 2102/2104 27012KT SCT018
BECMG 2111/2113 10005KT 8000

WAMM 20/11/2019 UTC

TAF WAMM 202300Z 2100/2206 11005KT 9999 SCT022
BECMG 2100/2102 33010KT
PROB30 TEMPO 2105/2109 5000 RA FEW016CB

WAMP

TAF not available.

WAJJ 20/11/2019 UTC

TAF WAJJ 202300Z 2100/2124 25008KT 9999 FEW013
TEMPO 2104/2109 VCSH FEW012CB FEW013
BECMG 2111/2113 00000KT
BECMG 2121/2123 13004KT

WAPP 20/11/2019 UTC

TAF WAPP 202300Z 2100/2124 20007KT 9999 SCT018
BECMG 2110/2112 34008KT

WABB 20/11/2019 UTC

TAF WABB 202300Z 2100/2206 27005KT 9999 SCT018
TEMPO 2104/2107 5000 RA FEW017CB
BECMG 2110/2112 00000KT

WPDL 20/11/2019 UTC

TAF WPDL 202335Z 2100/2112
36009KT CAVOK
RMK
T 31 31 31 30 Q 1011 1010 1009 1009

WATT 20/11/2019 UTC

TAF WATT 202300Z 2100/2124 13003KT 9999 FEW018
BECMG 2101/2103 32012KT
BECMG 2108/2110 18005KT

WIII 20/11/2019 UTC

TAF WIII 202300Z 2100/2206 18004KT 8000 SCT020 BECMG 2102/2104 35012KT TEMPO 2109/2112
5000 SHRA FEW018CB BKN019

WIHH 20/11/2019 UTC

TAF WIHH 202300Z 2100/2200 03010KT 6000 SCT020
BECMG 2112/2114 20005KT

WIMM 20/11/2019 UTC

TAF WIMM 202300Z 2100/2200 VRB05KT 4000 HZ BKN017
BECMG 2103/2105 03007KT 8000 FEW018
BECMG 2113/2115 VRB04KT 4000 HZ

WARR 20/11/2019 UTC

TAF WARR 202300Z 2100/2200 27005KT 5000 HZ SCT020
BECMG 2101/2103 10013KT 9999 NSW
TEMPO 2105/2108 SCT020CB
BECMG 2115/2117 26005KT 4000 HZ

WADD 20/11/2019 UTC

TAF WADD 202300Z 2100/2200 VRB05KT 9999 SCT017
TEMPO 2102/2106 23006KT
BECMG 2107/2109 13010KT
BECMG 2114/2116 VRB05KT

AYPY 20/11/2019 UTC

TAF AYPY 202207Z 2100/2124 VRB03KT 9999 FEW018 BKN040
FM210200 21007KT 9999 -SHRA SCT018 SCT040

AYNZ

TAF not available.

AYMH

TAF not available.

AYMD

TAF not available.

AYHK

TAF not available.

AYTK

TAF not available.

AYVN

TAF not available.

AYWK

TAF not available.

AYGA

TAF not available.

AYDU

TAF not available.

AYMS

TAF not available.

AYRB

TAF not available.

AYTB

TAF not available.

AYKI

TAF not available.

AYKT

TAF not available.

AYBK

TAF not available.

AYKM

TAF not available.

AYKY

TAF not available.

AYMO

TAF not available.

AYKV

TAF not available.

Accessing this Service

By entering this site, you acknowledge that this information is produced solely for use by the aviation industry, and you are aware that any information for the purposes of flight planning should be obtained from Airservices Australia.